createdAt,value
2023-03-31T04:36:49.349Z,9.90
2023-03-31T04:39:18.572Z,9.90
2023-03-31T04:41:46.499Z,9.90
2023-03-31T04:44:14.226Z,9.90
2023-03-31T04:46:41.926Z,9.90
2023-03-31T04:49:09.666Z,9.90
2023-03-31T04:51:37.476Z,10.00
2023-03-31T04:54:06.744Z,10.00
2023-03-31T04:56:35.237Z,10.00
2023-03-31T04:59:03.892Z,10.00
2023-03-31T05:01:33.582Z,10.00
2023-03-31T05:04:01.379Z,10.00
2023-03-31T05:06:32.248Z,9.90
2023-03-31T05:08:59.990Z,10.00
2023-03-31T09:06:52.013Z,11.20
2023-03-31T09:09:27.378Z,11.20
2023-03-31T09:11:57.758Z,11.30
2023-03-31T09:28:58.923Z,11.00
2023-03-31T09:31:27.573Z,11.20
2023-03-31T12:12:56.819Z,9.80
2023-03-31T12:15:27.754Z,9.90
2023-03-31T12:18:01.568Z,9.90
2023-03-31T12:20:37.929Z,10.10
2023-03-31T12:23:13.973Z,10.20
2023-03-31T12:25:53.104Z,10.20
2023-03-31T12:28:23.973Z,10.40
2023-03-31T12:30:53.792Z,10.60
2023-03-31T12:33:27.106Z,10.60
2023-03-31T12:36:10.646Z,10.60
2023-03-31T12:38:49.928Z,10.60
2023-03-31T12:41:26.553Z,10.70
2023-03-31T12:44:15.601Z,10.60
2023-03-31T12:47:05.401Z,10.60
2023-03-31T12:50:05.454Z,10.70
2023-03-31T12:52:40.683Z,11.00
2023-03-31T12:55:24.933Z,11.20
2023-03-31T12:57:52.793Z,11.40
2023-03-31T13:00:27.565Z,11.70
2023-03-31T13:03:34.070Z,12.10
2023-03-31T13:06:02.111Z,12.50
2023-03-31T13:08:54.754Z,12.70
2023-03-31T13:11:35.564Z,12.60
2023-03-31T13:14:05.411Z,12.50
2023-03-31T13:16:36.546Z,12.50
2023-03-31T13:19:04.592Z,12.70
2023-03-31T13:21:32.351Z,12.50
2023-03-31T13:24:03.550Z,12.70
2023-03-31T13:26:46.831Z,12.60
2023-03-31T13:29:24.604Z,13.10
2023-03-31T13:32:21.146Z,12.90
2023-03-31T13:35:00.691Z,13.00
2023-03-31T13:38:03.211Z,13.30
2023-03-31T13:41:05.169Z,13.20
2023-03-31T13:44:00.442Z,13.40
2023-03-31T13:46:52.929Z,13.60
2023-03-31T13:49:54.184Z,13.80
2023-03-31T13:52:34.386Z,14.00
2023-03-31T13:55:29.630Z,13.90
2023-03-31T13:58:33.700Z,14.10
2023-03-31T14:01:25.840Z,14.60
2023-03-31T14:04:10.326Z,14.70
2023-03-31T14:06:45.529Z,14.70
2023-03-31T14:09:21.607Z,14.60
2023-03-31T14:11:50.625Z,14.40
2023-03-31T14:14:20.090Z,14.60
2023-03-31T14:16:51.716Z,14.30
2023-03-31T14:19:39.787Z,13.70
2023-03-31T14:22:17.979Z,13.30
2023-03-31T14:24:52.899Z,13.00
2023-03-31T14:27:39.204Z,12.90
2023-03-31T14:30:17.601Z,12.70
2023-03-31T14:32:53.207Z,12.70
2023-03-31T14:35:28.837Z,12.60
2023-03-31T14:37:58.436Z,12.50
2023-03-31T14:40:26.745Z,11.40
2023-03-31T14:42:54.511Z,10.00
2023-03-31T14:45:25.174Z,9.30
2023-03-31T14:47:57.620Z,9.00
2023-03-31T14:50:32.650Z,9.00
2023-03-31T14:53:02.388Z,8.90
2023-03-31T14:55:54.245Z,8.90
2023-03-31T14:58:27.104Z,9.00
2023-03-31T15:00:56.070Z,9.10
2023-03-31T15:03:26.397Z,9.20
2023-03-31T15:05:58.426Z,9.40
2023-03-31T15:08:29.776Z,9.50
2023-03-31T15:11:11.911Z,9.50
2023-03-31T15:13:56.799Z,9.60
2023-03-31T15:16:36.219Z,9.80
2023-03-31T15:19:12.588Z,10.00
2023-03-31T15:21:40.532Z,10.20
2023-03-31T15:24:13.053Z,10.70
2023-03-31T15:26:46.575Z,11.00
2023-03-31T15:29:20.394Z,11.00
2023-03-31T15:31:48.948Z,11.00
2023-03-31T15:34:23.003Z,11.20
2023-03-31T15:36:50.985Z,11.30
2023-03-31T15:39:21.559Z,11.50
2023-03-31T15:41:49.919Z,11.40
2023-03-31T15:44:31.203Z,11.30
2023-03-31T15:47:07.084Z,11.20
2023-03-31T15:49:35.341Z,11.20
2023-03-31T15:52:03.481Z,11.10
2023-03-31T15:54:36.837Z,11.10
2023-03-31T15:57:06.941Z,11.30
2023-03-31T16:02:22.851Z,11.90
2023-03-31T16:04:52.066Z,12.20
2023-03-31T16:07:23.485Z,11.90
2023-03-31T16:09:56.249Z,11.50
2023-03-31T16:12:26.772Z,11.10
2023-03-31T16:14:58.873Z,10.80
2023-03-31T16:17:31.329Z,10.70
2023-03-31T16:20:07.036Z,10.50
2023-03-31T16:22:39.694Z,10.50
2023-03-31T16:25:14.292Z,10.50
2023-03-31T16:27:44.886Z,10.90
2023-03-31T16:30:16.043Z,10.80
2023-03-31T16:33:03.016Z,10.80
2023-03-31T16:35:33.045Z,10.80
2023-03-31T16:38:02.671Z,10.80
2023-03-31T16:40:35.693Z,10.70
2023-03-31T16:43:12.214Z,10.70
2023-03-31T16:45:40.092Z,10.60
2023-03-31T16:48:15.590Z,10.70
2023-03-31T16:50:44.315Z,10.60
2023-03-31T16:53:14.060Z,10.50
2023-03-31T16:55:43.438Z,10.50
2023-03-31T16:58:11.254Z,10.50
2023-03-31T17:00:40.349Z,10.50
2023-03-31T17:03:10.302Z,10.50
2023-03-31T17:05:41.363Z,10.50
2023-03-31T17:08:10.106Z,10.50
2023-03-31T17:10:38.816Z,10.60
2023-03-31T17:13:11.085Z,10.60
2023-03-31T17:15:39.928Z,10.50
2023-03-31T17:18:07.833Z,10.50
2023-03-31T17:20:36.362Z,10.40
2023-03-31T17:23:04.392Z,10.40
2023-03-31T17:25:32.889Z,10.30
2023-03-31T17:28:02.759Z,10.40
2023-03-31T17:30:34.144Z,10.40
2023-03-31T17:33:01.964Z,10.40
2023-03-31T17:35:30.597Z,10.50
2023-03-31T17:37:58.552Z,10.50
2023-03-31T17:40:28.012Z,10.50
2023-03-31T17:42:56.198Z,10.50
2023-03-31T17:45:26.908Z,10.40
2023-03-31T17:47:56.354Z,10.40
2023-03-31T17:50:27.091Z,10.40
2023-03-31T17:52:58.391Z,10.40
2023-03-31T17:55:27.124Z,10.40
2023-03-31T17:57:54.995Z,10.50
2023-03-31T18:00:23.218Z,10.50
2023-03-31T18:02:51.191Z,10.50
2023-03-31T18:05:20.744Z,10.50
2023-03-31T18:07:48.788Z,10.50
2023-03-31T18:10:18.655Z,10.60
2023-03-31T18:12:46.646Z,10.60
2023-03-31T18:15:14.460Z,10.50
2023-03-31T18:17:43.258Z,10.50
2023-03-31T18:20:12.820Z,10.50
2023-03-31T18:22:42.096Z,10.40
2023-03-31T18:25:11.364Z,10.40
2023-03-31T18:27:39.149Z,10.20
2023-03-31T18:30:08.503Z,10.20
2023-03-31T18:32:36.796Z,10.20
2023-03-31T18:35:05.626Z,10.10
2023-03-31T18:37:33.828Z,10.10
2023-03-31T18:40:03.650Z,10.10
2023-03-31T18:42:31.465Z,10.00
2023-03-31T18:44:59.239Z,9.90
2023-03-31T18:47:26.999Z,9.80
2023-03-31T18:49:55.774Z,9.70
2023-03-31T18:52:23.637Z,9.70
2023-03-31T18:54:51.544Z,9.70
